sensor_id;sensor_type;location;lat;lon;timestamp;temperature;humidity
23251;DHT22;11794;49.730;10.088;2023-10-09T00:00:51;12.70;99.90
23251;DHT22;11794;49.730;10.088;2023-10-09T00:03:21;12.70;99.90
23251;DHT22;11794;49.730;10.088;2023-10-09T00:05:50;12.80;99.90
23251;DHT22;11794;49.730;10.088;2023-10-09T00:08:19;12.80;99.90
23251;DHT22;11794;49.730;10.088;2023-10-09T00:10:50;12.90;99.90
23251;DHT22;11794;49.730;10.088;2023-10-09T00:13:23;12.90;99.90
23251;DHT22;11794;49.730;10.088;2023-10-09T00:16:05;12.80;99.90
23251;DHT22;11794;49.730;10.088;2023-10-09T00:18:39;12.90;99.90
23251;DHT22;11794;49.730;10.088;2023-10-09T00:21:05;12.90;99.90
23251;DHT22;11794;49.730;10.088;2023-10-09T00:23:38;12.90;99.90
23251;DHT22;11794;49.730;10.088;2023-10-09T00:26:04;12.90;99.90
23251;DHT22;11794;49.730;10.088;2023-10-09T00:28:38;12.90;99.90
23251;DHT22;11794;49.730;10.088;2023-10-09T00:31:06;12.90;99.90
23251;DHT22;11794;49.730;10.088;2023-10-09T00:33:34;12.90;99.90
23251;DHT22;11794;49.730;10.088;2023-10-09T00:36:05;12.80;99.90
23251;DHT22;11794;49.730;10.088;2023-10-09T00:38:40;12.90;99.90
23251;DHT22;11794;49.730;10.088;2023-10-09T00:41:10;12.90;99.90
23251;DHT22;11794;49.730;10.088;2023-10-09T00:43:38;12.80;99.90
23251;DHT22;11794;49.730;10.088;2023-10-09T00:46:08;12.70;99.90
23251;DHT22;11794;49.730;10.088;2023-10-09T00:48:47;12.70;99.90
23251;DHT22;11794;49.730;10.088;2023-10-09T00:51:16;12.60;99.90
23251;DHT22;11794;49.730;10.088;2023-10-09T00:53:51;12.50;99.90
23251;DHT22;11794;49.730;10.088;2023-10-09T00:56:21;12.50;99.90
23251;DHT22;11794;49.730;10.088;2023-10-09T00:58:50;12.50;99.90
23251;DHT22;11794;49.730;10.088;2023-10-09T01:01:40;12.60;99.90
23251;DHT22;11794;49.730;10.088;2023-10-09T01:04:11;12.60;99.90
23251;DHT22;11794;49.730;10.088;2023-10-09T01:06:45;12.50;99.90
23251;DHT22;11794;49.730;10.088;2023-10-09T01:09:14;12.50;99.90
23251;DHT22;11794;49.730;10.088;2023-10-09T01:11:43;12.50;99.90
23251;DHT22;11794;49.730;10.088;2023-10-09T01:14:29;12.40;99.90
23251;DHT22;11794;49.730;10.088;2023-10-09T01:16:56;12.50;99.90
23251;DHT22;11794;49.730;10.088;2023-10-09T01:19:22;12.40;99.90
23251;DHT22;11794;49.730;10.088;2023-10-09T01:21:53;12.50;99.90
23251;DHT22;11794;49.730;10.088;2023-10-09T01:24:19;12.60;99.90
23251;DHT22;11794;49.730;10.088;2023-10-09T01:26:46;12.60;99.90
23251;DHT22;11794;49.730;10.088;2023-10-09T01:29:22;12.60;99.90
23251;DHT22;11794;49.730;10.088;2023-10-09T01:31:53;12.70;99.90
23251;DHT22;11794;49.730;10.088;2023-10-09T01:34:30;12.60;99.90
23251;DHT22;11794;49.730;10.088;2023-10-09T01:37:05;12.50;99.90
23251;DHT22;11794;49.730;10.088;2023-10-09T01:39:40;12.40;99.90
23251;DHT22;11794;49.730;10.088;2023-10-09T01:42:08;12.30;99.90
23251;DHT22;11794;49.730;10.088;2023-10-09T01:44:35;12.30;99.90
23251;DHT22;11794;49.730;10.088;2023-10-09T01:47:04;12.20;99.90
23251;DHT22;11794;49.730;10.088;2023-10-09T01:49:34;12.30;99.90
23251;DHT22;11794;49.730;10.088;2023-10-09T01:52:02;12.30;99.90
23251;DHT22;11794;49.730;10.088;2023-10-09T01:54:38;12.30;99.90
23251;DHT22;11794;49.730;10.088;2023-10-09T01:57:06;12.40;99.90
23251;DHT22;11794;49.730;10.088;2023-10-09T01:59:38;12.40;99.90
23251;DHT22;11794;49.730;10.088;2023-10-09T02:02:04;12.30;99.90
23251;DHT22;11794;49.730;10.088;2023-10-09T02:04:38;12.30;99.90
23251;DHT22;11794;49.730;10.088;2023-10-09T02:07:06;12.20;99.90
23251;DHT22;11794;49.730;10.088;2023-10-09T02:09:34;12.20;99.90
23251;DHT22;11794;49.730;10.088;2023-10-09T02:12:01;12.10;99.90
23251;DHT22;11794;49.730;10.088;2023-10-09T02:14:27;12.00;99.90
23251;DHT22;11794;49.730;10.088;2023-10-09T02:16:54;12.10;99.90
23251;DHT22;11794;49.730;10.088;2023-10-09T02:19:31;12.10;99.90
23251;DHT22;11794;49.730;10.088;2023-10-09T02:22:02;12.20;99.90
23251;DHT22;11794;49.730;10.088;2023-10-09T02:24:39;12.20;99.90
23251;DHT22;11794;49.730;10.088;2023-10-09T02:27:18;12.10;99.90
23251;DHT22;11794;49.730;10.088;2023-10-09T02:30:04;12.10;99.90
23251;DHT22;11794;49.730;10.088;2023-10-09T02:32:40;12.00;99.90
23251;DHT22;11794;49.730;10.088;2023-10-09T02:35:09;12.00;99.90
23251;DHT22;11794;49.730;10.088;2023-10-09T02:37:44;12.00;99.90
23251;DHT22;11794;49.730;10.088;2023-10-09T02:40:13;12.00;99.90
23251;DHT22;11794;49.730;10.088;2023-10-09T02:42:47;11.90;99.90
23251;DHT22;11794;49.730;10.088;2023-10-09T02:45:15;11.90;99.90
23251;DHT22;11794;49.730;10.088;2023-10-09T02:47:41;12.00;99.90
23251;DHT22;11794;49.730;10.088;2023-10-09T02:50:08;12.00;99.90
23251;DHT22;11794;49.730;10.088;2023-10-09T02:52:34;12.00;99.90
23251;DHT22;11794;49.730;10.088;2023-10-09T02:55:06;12.10;99.90
23251;DHT22;11794;49.730;10.088;2023-10-09T02:57:38;12.10;99.90
23251;DHT22;11794;49.730;10.088;2023-10-09T03:00:07;12.10;99.90
23251;DHT22;11794;49.730;10.088;2023-10-09T03:02:44;12.20;99.90
23251;DHT22;11794;49.730;10.088;2023-10-09T03:05:16;12.20;99.90
23251;DHT22;11794;49.730;10.088;2023-10-09T03:07:41;12.10;99.90
23251;DHT22;11794;49.730;10.088;2023-10-09T03:10:07;12.20;99.90
23251;DHT22;11794;49.730;10.088;2023-10-09T03:12:36;12.20;99.90
23251;DHT22;11794;49.730;10.088;2023-10-09T03:15:02;12.10;99.90
23251;DHT22;11794;49.730;10.088;2023-10-09T03:17:31;12.00;99.90
23251;DHT22;11794;49.730;10.088;2023-10-09T03:20:02;12.00;99.90
23251;DHT22;11794;49.730;10.088;2023-10-09T03:22:28;11.80;99.90
23251;DHT22;11794;49.730;10.088;2023-10-09T03:24:56;11.70;99.90
23251;DHT22;11794;49.730;10.088;2023-10-09T03:27:21;11.60;99.90
23251;DHT22;11794;49.730;10.088;2023-10-09T03:29:47;11.70;99.90
23251;DHT22;11794;49.730;10.088;2023-10-09T03:32:15;11.70;99.90
23251;DHT22;11794;49.730;10.088;2023-10-09T03:34:41;11.80;99.90
23251;DHT22;11794;49.730;10.088;2023-10-09T03:37:07;11.70;99.90
23251;DHT22;11794;49.730;10.088;2023-10-09T03:39:46;11.70;99.90
23251;DHT22;11794;49.730;10.088;2023-10-09T03:42:20;11.70;99.90
23251;DHT22;11794;49.730;10.088;2023-10-09T03:44:48;11.60;99.90
23251;DHT22;11794;49.730;10.088;2023-10-09T03:47:23;11.50;99.90
23251;DHT22;11794;49.730;10.088;2023-10-09T03:49:49;11.50;99.90
23251;DHT22;11794;49.730;10.088;2023-10-09T03:52:17;11.60;99.90
23251;DHT22;11794;49.730;10.088;2023-10-09T03:54:44;11.40;99.90
23251;DHT22;11794;49.730;10.088;2023-10-09T03:57:13;11.40;99.90
23251;DHT22;11794;49.730;10.088;2023-10-09T03:59:45;11.50;99.90
23251;DHT22;11794;49.730;10.088;2023-10-09T04:02:13;11.50;99.90
23251;DHT22;11794;49.730;10.088;2023-10-09T04:04:38;11.40;99.90
23251;DHT22;11794;49.730;10.088;2023-10-09T04:07:04;11.50;99.90
23251;DHT22;11794;49.730;10.088;2023-10-09T04:09:32;11.50;99.90
23251;DHT22;11794;49.730;10.088;2023-10-09T04:12:05;11.30;99.90
23251;DHT22;11794;49.730;10.088;2023-10-09T04:14:40;11.30;99.90
23251;DHT22;11794;49.730;10.088;2023-10-09T04:17:26;11.30;99.90
23251;DHT22;11794;49.730;10.088;2023-10-09T04:19:54;11.40;99.90
23251;DHT22;11794;49.730;10.088;2023-10-09T04:22:43;11.40;99.90
23251;DHT22;11794;49.730;10.088;2023-10-09T04:25:25;11.50;99.90
23251;DHT22;11794;49.730;10.088;2023-10-09T04:27:58;11.50;99.90
23251;DHT22;11794;49.730;10.088;2023-10-09T04:30:43;11.50;99.90
23251;DHT22;11794;49.730;10.088;2023-10-09T04:33:14;11.30;99.90
23251;DHT22;11794;49.730;10.088;2023-10-09T04:36:04;11.20;99.90
23251;DHT22;11794;49.730;10.088;2023-10-09T04:38:46;11.10;99.90
23251;DHT22;11794;49.730;10.088;2023-10-09T04:41:33;11.10;99.90
23251;DHT22;11794;49.730;10.088;2023-10-09T04:44:17;11.20;99.90
23251;DHT22;11794;49.730;10.088;2023-10-09T04:46:55;11.20;99.90
23251;DHT22;11794;49.730;10.088;2023-10-09T04:49:39;11.20;99.90
23251;DHT22;11794;49.730;10.088;2023-10-09T04:52:17;11.30;99.90
23251;DHT22;11794;49.730;10.088;2023-10-09T04:54:56;11.30;99.90
23251;DHT22;11794;49.730;10.088;2023-10-09T04:57:43;11.30;99.90
23251;DHT22;11794;49.730;10.088;2023-10-09T05:00:09;11.20;99.90
23251;DHT22;11794;49.730;10.088;2023-10-09T05:02:58;11.10;99.90
23251;DHT22;11794;49.730;10.088;2023-10-09T05:05:30;11.20;99.90
23251;DHT22;11794;49.730;10.088;2023-10-09T05:08:11;11.20;99.90
23251;DHT22;11794;49.730;10.088;2023-10-09T05:10:47;11.30;99.90
23251;DHT22;11794;49.730;10.088;2023-10-09T05:13:29;11.30;99.90
23251;DHT22;11794;49.730;10.088;2023-10-09T05:16:16;11.50;99.90
23251;DHT22;11794;49.730;10.088;2023-10-09T05:18:51;11.50;99.90
23251;DHT22;11794;49.730;10.088;2023-10-09T05:21:40;11.60;99.90
23251;DHT22;11794;49.730;10.088;2023-10-09T05:24:09;11.70;99.90
23251;DHT22;11794;49.730;10.088;2023-10-09T05:26:50;11.80;99.90
23251;DHT22;11794;49.730;10.088;2023-10-09T05:29:20;11.90;99.90
23251;DHT22;11794;49.730;10.088;2023-10-09T05:32:02;12.10;99.90
23251;DHT22;11794;49.730;10.088;2023-10-09T05:34:41;12.20;99.90
23251;DHT22;11794;49.730;10.088;2023-10-09T05:37:34;12.40;99.90
23251;DHT22;11794;49.730;10.088;2023-10-09T05:40:01;12.60;99.90
23251;DHT22;11794;49.730;10.088;2023-10-09T05:42:28;12.60;99.90
23251;DHT22;11794;49.730;10.088;2023-10-09T05:47:46;12.70;99.90
23251;DHT22;11794;49.730;10.088;2023-10-09T05:50:31;12.70;99.90
23251;DHT22;11794;49.730;10.088;2023-10-09T05:53:00;12.70;99.90
23251;DHT22;11794;49.730;10.088;2023-10-09T05:55:26;12.70;99.90
23251;DHT22;11794;49.730;10.088;2023-10-09T05:57:53;12.80;99.90
23251;DHT22;11794;49.730;10.088;2023-10-09T06:00:34;12.80;99.90
23251;DHT22;11794;49.730;10.088;2023-10-09T06:03:18;12.80;99.90
23251;DHT22;11794;49.730;10.088;2023-10-09T06:05:48;12.90;99.90
23251;DHT22;11794;49.730;10.088;2023-10-09T06:08:29;13.00;99.90
23251;DHT22;11794;49.730;10.088;2023-10-09T06:11:17;13.00;99.90
23251;DHT22;11794;49.730;10.088;2023-10-09T06:14:01;13.00;99.90
23251;DHT22;11794;49.730;10.088;2023-10-09T06:16:39;13.10;99.90
23251;DHT22;11794;49.730;10.088;2023-10-09T06:19:09;13.10;99.90
23251;DHT22;11794;49.730;10.088;2023-10-09T06:21:51;13.10;99.90
23251;DHT22;11794;49.730;10.088;2023-10-09T06:24:17;13.20;99.90
23251;DHT22;11794;49.730;10.088;2023-10-09T06:26:45;13.20;99.90
23251;DHT22;11794;49.730;10.088;2023-10-09T06:29:29;13.20;99.90
23251;DHT22;11794;49.730;10.088;2023-10-09T06:32:04;13.20;99.90
23251;DHT22;11794;49.730;10.088;2023-10-09T06:34:52;13.30;99.90
23251;DHT22;11794;49.730;10.088;2023-10-09T06:37:23;13.30;99.90
23251;DHT22;11794;49.730;10.088;2023-10-09T06:39:49;13.20;99.90
23251;DHT22;11794;49.730;10.088;2023-10-09T06:42:27;13.10;99.90
23251;DHT22;11794;49.730;10.088;2023-10-09T06:45:02;13.30;99.90
23251;DHT22;11794;49.730;10.088;2023-10-09T06:47:35;13.40;99.90
23251;DHT22;11794;49.730;10.088;2023-10-09T06:50:11;13.50;99.90
23251;DHT22;11794;49.730;10.088;2023-10-09T06:52:46;13.60;99.90
23251;DHT22;11794;49.730;10.088;2023-10-09T06:55:27;13.70;99.90
23251;DHT22;11794;49.730;10.088;2023-10-09T06:58:01;13.70;99.90
23251;DHT22;11794;49.730;10.088;2023-10-09T07:00:30;13.70;99.90
23251;DHT22;11794;49.730;10.088;2023-10-09T07:03:14;13.70;99.90
23251;DHT22;11794;49.730;10.088;2023-10-09T07:05:42;13.80;99.90
23251;DHT22;11794;49.730;10.088;2023-10-09T07:08:30;13.90;99.90
23251;DHT22;11794;49.730;10.088;2023-10-09T07:11:06;14.00;99.90
23251;DHT22;11794;49.730;10.088;2023-10-09T07:14:20;14.10;99.90
23251;DHT22;11794;49.730;10.088;2023-10-09T07:17:02;14.30;99.90
23251;DHT22;11794;49.730;10.088;2023-10-09T07:19:47;14.40;99.90
23251;DHT22;11794;49.730;10.088;2023-10-09T07:22:13;14.50;99.90
23251;DHT22;11794;49.730;10.088;2023-10-09T07:24:55;14.60;99.90
23251;DHT22;11794;49.730;10.088;2023-10-09T07:27:30;14.90;99.90
23251;DHT22;11794;49.730;10.088;2023-10-09T07:30:31;15.20;99.90
23251;DHT22;11794;49.730;10.088;2023-10-09T07:33:04;15.60;99.90
23251;DHT22;11794;49.730;10.088;2023-10-09T07:35:35;15.90;99.90
23251;DHT22;11794;49.730;10.088;2023-10-09T07:38:21;16.20;99.90
23251;DHT22;11794;49.730;10.088;2023-10-09T07:40:54;16.50;99.90
23251;DHT22;11794;49.730;10.088;2023-10-09T07:43:24;16.70;99.90
23251;DHT22;11794;49.730;10.088;2023-10-09T07:45:56;16.90;99.90
23251;DHT22;11794;49.730;10.088;2023-10-09T07:48:25;17.10;99.90
23251;DHT22;11794;49.730;10.088;2023-10-09T07:50:51;17.30;99.90
23251;DHT22;11794;49.730;10.088;2023-10-09T07:53:25;17.20;99.90
23251;DHT22;11794;49.730;10.088;2023-10-09T07:55:55;17.30;99.90
23251;DHT22;11794;49.730;10.088;2023-10-09T07:58:25;17.30;99.90
23251;DHT22;11794;49.730;10.088;2023-10-09T08:00:57;17.10;99.90
23251;DHT22;11794;49.730;10.088;2023-10-09T08:03:33;16.70;99.90
23251;DHT22;11794;49.730;10.088;2023-10-09T08:06:01;16.60;99.90
23251;DHT22;11794;49.730;10.088;2023-10-09T08:08:52;16.60;99.90
23251;DHT22;11794;49.730;10.088;2023-10-09T08:11:36;16.60;99.90
23251;DHT22;11794;49.730;10.088;2023-10-09T08:14:11;16.80;99.90
23251;DHT22;11794;49.730;10.088;2023-10-09T08:16:56;17.00;99.90
23251;DHT22;11794;49.730;10.088;2023-10-09T08:19:47;17.10;99.90
23251;DHT22;11794;49.730;10.088;2023-10-09T08:22:29;17.10;99.90
23251;DHT22;11794;49.730;10.088;2023-10-09T08:24:55;17.10;99.90
23251;DHT22;11794;49.730;10.088;2023-10-09T08:27:27;17.00;99.90
23251;DHT22;11794;49.730;10.088;2023-10-09T08:30:05;17.10;99.90
23251;DHT22;11794;49.730;10.088;2023-10-09T08:32:58;17.20;99.90
23251;DHT22;11794;49.730;10.088;2023-10-09T08:35:31;17.30;99.90
23251;DHT22;11794;49.730;10.088;2023-10-09T08:38:17;17.40;99.90
23251;DHT22;11794;49.730;10.088;2023-10-09T08:40:50;17.50;99.90
23251;DHT22;11794;49.730;10.088;2023-10-09T08:43:19;17.40;99.90
23251;DHT22;11794;49.730;10.088;2023-10-09T08:45:47;17.40;99.90
23251;DHT22;11794;49.730;10.088;2023-10-09T08:48:13;17.40;99.90
23251;DHT22;11794;49.730;10.088;2023-10-09T08:50:44;17.40;99.90
23251;DHT22;11794;49.730;10.088;2023-10-09T08:53:11;17.40;99.90
23251;DHT22;11794;49.730;10.088;2023-10-09T08:55:37;17.30;99.90
23251;DHT22;11794;49.730;10.088;2023-10-09T08:58:05;17.30;99.90
23251;DHT22;11794;49.730;10.088;2023-10-09T09:00:41;17.20;99.90
23251;DHT22;11794;49.730;10.088;2023-10-09T09:03:11;17.10;99.90
23251;DHT22;11794;49.730;10.088;2023-10-09T09:05:37;17.20;99.90
23251;DHT22;11794;49.730;10.088;2023-10-09T09:08:03;17.20;99.90
23251;DHT22;11794;49.730;10.088;2023-10-09T09:10:29;17.30;99.90
23251;DHT22;11794;49.730;10.088;2023-10-09T09:13:04;17.40;99.90
23251;DHT22;11794;49.730;10.088;2023-10-09T09:15:31;17.40;99.90
23251;DHT22;11794;49.730;10.088;2023-10-09T09:18:07;17.40;99.90
23251;DHT22;11794;49.730;10.088;2023-10-09T09:20:34;17.30;99.90
23251;DHT22;11794;49.730;10.088;2023-10-09T09:23:05;17.30;99.90
23251;DHT22;11794;49.730;10.088;2023-10-09T09:25:45;17.30;99.90
23251;DHT22;11794;49.730;10.088;2023-10-09T09:28:14;17.20;99.90
23251;DHT22;11794;49.730;10.088;2023-10-09T09:30:47;17.20;99.90
23251;DHT22;11794;49.730;10.088;2023-10-09T09:33:21;17.20;99.90
23251;DHT22;11794;49.730;10.088;2023-10-09T09:38:28;17.30;99.90
23251;DHT22;11794;49.730;10.088;2023-10-09T09:40:56;17.30;99.90
23251;DHT22;11794;49.730;10.088;2023-10-09T09:43:22;17.30;99.90
23251;DHT22;11794;49.730;10.088;2023-10-09T09:45:48;17.30;99.90
23251;DHT22;11794;49.730;10.088;2023-10-09T09:48:16;17.30;99.90
23251;DHT22;11794;49.730;10.088;2023-10-09T09:50:45;17.20;99.90
23251;DHT22;11794;49.730;10.088;2023-10-09T09:53:15;17.10;99.90
23251;DHT22;11794;49.730;10.088;2023-10-09T09:55:53;17.00;99.90
23251;DHT22;11794;49.730;10.088;2023-10-09T09:58:25;17.00;99.90
23251;DHT22;11794;49.730;10.088;2023-10-09T10:01:01;17.10;99.90
23251;DHT22;11794;49.730;10.088;2023-10-09T10:03:38;17.20;99.90
23251;DHT22;11794;49.730;10.088;2023-10-09T10:06:09;17.40;99.90
23251;DHT22;11794;49.730;10.088;2023-10-09T10:08:37;17.50;99.90
23251;DHT22;11794;49.730;10.088;2023-10-09T10:11:05;17.50;99.90
23251;DHT22;11794;49.730;10.088;2023-10-09T10:16:07;17.70;99.90
23251;DHT22;11794;49.730;10.088;2023-10-09T10:18:54;17.70;99.90
23251;DHT22;11794;49.730;10.088;2023-10-09T10:21:35;17.90;99.90
23251;DHT22;11794;49.730;10.088;2023-10-09T10:33:00;18.30;99.90
23251;DHT22;11794;49.730;10.088;2023-10-09T10:35:35;18.30;99.90
23251;DHT22;11794;49.730;10.088;2023-10-09T10:38:31;18.50;99.90
23251;DHT22;11794;49.730;10.088;2023-10-09T10:43:37;18.60;99.90
23251;DHT22;11794;49.730;10.088;2023-10-09T10:46:18;18.60;99.90
23251;DHT22;11794;49.730;10.088;2023-10-09T10:48:59;18.60;99.90
23251;DHT22;11794;49.730;10.088;2023-10-09T10:51:34;18.70;99.90
23251;DHT22;11794;49.730;10.088;2023-10-09T10:54:03;18.80;99.90
23251;DHT22;11794;49.730;10.088;2023-10-09T10:56:47;18.70;99.90
23251;DHT22;11794;49.730;10.088;2023-10-09T10:59:17;18.70;99.90
23251;DHT22;11794;49.730;10.088;2023-10-09T11:01:49;18.70;99.90
23251;DHT22;11794;49.730;10.088;2023-10-09T11:04:27;18.70;99.90
23251;DHT22;11794;49.730;10.088;2023-10-09T11:07:01;18.60;99.90
23251;DHT22;11794;49.730;10.088;2023-10-09T11:09:51;18.60;99.90
23251;DHT22;11794;49.730;10.088;2023-10-09T11:12:24;18.50;99.90
23251;DHT22;11794;49.730;10.088;2023-10-09T11:14:50;18.60;99.90
23251;DHT22;11794;49.730;10.088;2023-10-09T11:17:32;18.60;99.90
23251;DHT22;11794;49.730;10.088;2023-10-09T11:19:58;18.60;99.90
23251;DHT22;11794;49.730;10.088;2023-10-09T11:22:44;18.60;99.90
23251;DHT22;11794;49.730;10.088;2023-10-09T11:25:30;18.60;99.90
23251;DHT22;11794;49.730;10.088;2023-10-09T11:27:56;18.50;99.90
23251;DHT22;11794;49.730;10.088;2023-10-09T11:30:31;18.50;99.90
23251;DHT22;11794;49.730;10.088;2023-10-09T11:33:05;18.60;99.90
23251;DHT22;11794;49.730;10.088;2023-10-09T11:35:30;18.70;99.90
23251;DHT22;11794;49.730;10.088;2023-10-09T11:38:00;18.80;99.90
23251;DHT22;11794;49.730;10.088;2023-10-09T11:40:28;19.00;99.90
23251;DHT22;11794;49.730;10.088;2023-10-09T11:43:00;19.10;99.90
23251;DHT22;11794;49.730;10.088;2023-10-09T11:45:27;18.90;99.90
23251;DHT22;11794;49.730;10.088;2023-10-09T11:47:57;18.80;99.90
23251;DHT22;11794;49.730;10.088;2023-10-09T11:50:45;18.70;99.90
23251;DHT22;11794;49.730;10.088;2023-10-09T11:53:17;18.70;99.90
23251;DHT22;11794;49.730;10.088;2023-10-09T11:55:50;18.70;99.90
23251;DHT22;11794;49.730;10.088;2023-10-09T11:58:18;18.70;99.90
23251;DHT22;11794;49.730;10.088;2023-10-09T12:00:57;18.70;99.90
23251;DHT22;11794;49.730;10.088;2023-10-09T12:03:28;18.80;99.90
23251;DHT22;11794;49.730;10.088;2023-10-09T12:05:59;18.90;99.90
23251;DHT22;11794;49.730;10.088;2023-10-09T12:08:34;19.00;99.90
23251;DHT22;11794;49.730;10.088;2023-10-09T12:11:01;19.00;99.90
23251;DHT22;11794;49.730;10.088;2023-10-09T12:13:33;19.00;99.90
23251;DHT22;11794;49.730;10.088;2023-10-09T12:15:59;19.00;99.90
23251;DHT22;11794;49.730;10.088;2023-10-09T12:18:25;18.90;99.90
23251;DHT22;11794;49.730;10.088;2023-10-09T12:20:51;18.90;99.90
23251;DHT22;11794;49.730;10.088;2023-10-09T12:23:18;19.00;99.90
23251;DHT22;11794;49.730;10.088;2023-10-09T12:25:44;19.00;99.90
23251;DHT22;11794;49.730;10.088;2023-10-09T12:28:13;19.10;99.90
23251;DHT22;11794;49.730;10.088;2023-10-09T12:30:40;19.10;99.90
23251;DHT22;11794;49.730;10.088;2023-10-09T12:33:06;19.10;99.90
23251;DHT22;11794;49.730;10.088;2023-10-09T12:35:36;19.10;99.90
23251;DHT22;11794;49.730;10.088;2023-10-09T12:38:02;19.10;99.90
23251;DHT22;11794;49.730;10.088;2023-10-09T12:40:28;19.20;99.90
23251;DHT22;11794;49.730;10.088;2023-10-09T12:42:57;19.30;99.90
23251;DHT22;11794;49.730;10.088;2023-10-09T12:45:26;19.40;99.90
23251;DHT22;11794;49.730;10.088;2023-10-09T12:47:53;19.40;99.90
23251;DHT22;11794;49.730;10.088;2023-10-09T12:50:19;19.50;99.90
23251;DHT22;11794;49.730;10.088;2023-10-09T12:52:54;19.50;99.90
23251;DHT22;11794;49.730;10.088;2023-10-09T12:55:20;19.60;99.90
23251;DHT22;11794;49.730;10.088;2023-10-09T12:57:47;19.60;99.90
23251;DHT22;11794;49.730;10.088;2023-10-09T13:00:13;19.60;99.90
23251;DHT22;11794;49.730;10.088;2023-10-09T13:02:50;19.60;99.90
23251;DHT22;11794;49.730;10.088;2023-10-09T13:05:16;19.50;99.90
23251;DHT22;11794;49.730;10.088;2023-10-09T13:07:51;19.60;99.90
23251;DHT22;11794;49.730;10.088;2023-10-09T13:10:18;19.60;99.90
23251;DHT22;11794;49.730;10.088;2023-10-09T13:12:43;19.70;99.90
23251;DHT22;11794;49.730;10.088;2023-10-09T13:15:10;19.80;99.90
23251;DHT22;11794;49.730;10.088;2023-10-09T13:17:37;20.00;99.90
23251;DHT22;11794;49.730;10.088;2023-10-09T13:20:03;20.20;99.90
23251;DHT22;11794;49.730;10.088;2023-10-09T13:22:38;20.30;99.90
23251;DHT22;11794;49.730;10.088;2023-10-09T13:25:10;20.20;99.90
23251;DHT22;11794;49.730;10.088;2023-10-09T13:27:45;20.20;99.90
23251;DHT22;11794;49.730;10.088;2023-10-09T13:30:19;20.10;99.90
23251;DHT22;11794;49.730;10.088;2023-10-09T13:32:48;20.10;99.90
23251;DHT22;11794;49.730;10.088;2023-10-09T13:35:18;20.20;99.90
23251;DHT22;11794;49.730;10.088;2023-10-09T13:37:47;20.20;99.90
23251;DHT22;11794;49.730;10.088;2023-10-09T13:40:22;20.20;99.90
23251;DHT22;11794;49.730;10.088;2023-10-09T13:42:56;20.30;99.90
23251;DHT22;11794;49.730;10.088;2023-10-09T13:45:26;20.40;99.90
23251;DHT22;11794;49.730;10.088;2023-10-09T13:47:55;20.50;99.90
23251;DHT22;11794;49.730;10.088;2023-10-09T13:50:24;20.50;99.90
23251;DHT22;11794;49.730;10.088;2023-10-09T13:52:50;20.50;99.90
23251;DHT22;11794;49.730;10.088;2023-10-09T13:55:19;20.50;99.90
23251;DHT22;11794;49.730;10.088;2023-10-09T13:57:45;20.50;99.90
23251;DHT22;11794;49.730;10.088;2023-10-09T14:00:14;20.40;99.90
23251;DHT22;11794;49.730;10.088;2023-10-09T14:02:59;20.50;99.90
23251;DHT22;11794;49.730;10.088;2023-10-09T14:05:27;20.50;99.90
23251;DHT22;11794;49.730;10.088;2023-10-09T14:07:53;20.50;99.90
23251;DHT22;11794;49.730;10.088;2023-10-09T14:10:25;20.50;99.90
23251;DHT22;11794;49.730;10.088;2023-10-09T14:12:55;20.50;99.90
23251;DHT22;11794;49.730;10.088;2023-10-09T14:15:23;20.60;99.90
23251;DHT22;11794;49.730;10.088;2023-10-09T14:17:48;20.60;99.90
23251;DHT22;11794;49.730;10.088;2023-10-09T14:20:23;20.60;99.90
23251;DHT22;11794;49.730;10.088;2023-10-09T14:23:00;20.60;99.90
23251;DHT22;11794;49.730;10.088;2023-10-09T14:25:33;20.60;99.90
23251;DHT22;11794;49.730;10.088;2023-10-09T14:27:59;20.50;99.90
23251;DHT22;11794;49.730;10.088;2023-10-09T14:30:24;20.40;99.90
23251;DHT22;11794;49.730;10.088;2023-10-09T14:32:58;20.50;99.90
23251;DHT22;11794;49.730;10.088;2023-10-09T14:35:26;20.50;99.90
23251;DHT22;11794;49.730;10.088;2023-10-09T14:37:55;20.50;99.90
23251;DHT22;11794;49.730;10.088;2023-10-09T14:40:21;20.50;99.90
23251;DHT22;11794;49.730;10.088;2023-10-09T14:42:58;20.50;99.90
23251;DHT22;11794;49.730;10.088;2023-10-09T14:45:26;20.40;99.90
23251;DHT22;11794;49.730;10.088;2023-10-09T14:47:53;20.40;99.90
23251;DHT22;11794;49.730;10.088;2023-10-09T14:50:22;20.40;99.90
23251;DHT22;11794;49.730;10.088;2023-10-09T14:52:49;20.30;99.90
23251;DHT22;11794;49.730;10.088;2023-10-09T14:55:16;20.30;99.90
23251;DHT22;11794;49.730;10.088;2023-10-09T14:57:52;20.40;99.90
23251;DHT22;11794;49.730;10.088;2023-10-09T15:00:17;20.40;99.90
23251;DHT22;11794;49.730;10.088;2023-10-09T15:02:49;20.40;99.90
23251;DHT22;11794;49.730;10.088;2023-10-09T15:05:16;20.30;99.90
23251;DHT22;11794;49.730;10.088;2023-10-09T15:07:41;20.40;99.90
23251;DHT22;11794;49.730;10.088;2023-10-09T15:10:07;20.30;99.90
23251;DHT22;11794;49.730;10.088;2023-10-09T15:12:34;20.30;99.90
23251;DHT22;11794;49.730;10.088;2023-10-09T15:15:05;20.20;99.90
23251;DHT22;11794;49.730;10.088;2023-10-09T15:17:42;20.20;99.90
23251;DHT22;11794;49.730;10.088;2023-10-09T15:20:13;20.10;99.90
23251;DHT22;11794;49.730;10.088;2023-10-09T15:22:43;20.10;99.90
23251;DHT22;11794;49.730;10.088;2023-10-09T15:25:09;20.10;99.90
23251;DHT22;11794;49.730;10.088;2023-10-09T15:27:40;20.00;99.90
23251;DHT22;11794;49.730;10.088;2023-10-09T15:30:06;20.00;99.90
23251;DHT22;11794;49.730;10.088;2023-10-09T15:32:33;20.00;99.90
23251;DHT22;11794;49.730;10.088;2023-10-09T15:35:00;19.90;99.90
23251;DHT22;11794;49.730;10.088;2023-10-09T15:37:28;19.90;99.90
23251;DHT22;11794;49.730;10.088;2023-10-09T15:39:54;19.90;99.90
23251;DHT22;11794;49.730;10.088;2023-10-09T15:42:20;19.90;99.90
23251;DHT22;11794;49.730;10.088;2023-10-09T15:44:45;19.90;99.90
23251;DHT22;11794;49.730;10.088;2023-10-09T15:47:13;19.80;99.90
23251;DHT22;11794;49.730;10.088;2023-10-09T15:49:41;19.80;99.90
23251;DHT22;11794;49.730;10.088;2023-10-09T15:52:09;19.70;99.90
23251;DHT22;11794;49.730;10.088;2023-10-09T15:54:40;19.70;99.90
23251;DHT22;11794;49.730;10.088;2023-10-09T15:57:08;19.60;99.90
23251;DHT22;11794;49.730;10.088;2023-10-09T15:59:35;19.60;99.90
23251;DHT22;11794;49.730;10.088;2023-10-09T16:02:00;19.50;99.90
23251;DHT22;11794;49.730;10.088;2023-10-09T16:04:26;19.50;99.90
23251;DHT22;11794;49.730;10.088;2023-10-09T16:06:51;19.40;99.90